createdAt,value
2023-02-11T00:00:41.140Z,87.46
2023-02-11T00:03:09.122Z,87.62
2023-02-11T00:05:36.032Z,87.40
2023-02-11T00:08:02.601Z,87.47
2023-02-11T00:10:31.385Z,87.42
2023-02-11T00:12:58.180Z,87.52
2023-02-11T00:15:24.831Z,87.82
2023-02-11T00:17:51.853Z,87.58
2023-02-11T00:20:18.412Z,87.80
2023-02-11T00:22:45.692Z,87.79
2023-02-11T00:25:12.273Z,87.91
2023-02-11T00:27:38.827Z,87.83
2023-02-11T00:30:06.031Z,87.88
2023-02-11T00:32:32.774Z,87.71
2023-02-11T00:34:59.395Z,87.73
2023-02-11T00:37:25.879Z,87.84
2023-02-11T00:39:52.452Z,87.91
2023-02-11T00:42:21.366Z,87.93
2023-02-11T00:44:49.263Z,88.07
2023-02-11T00:47:15.741Z,87.90
2023-02-11T00:49:42.272Z,87.96
2023-02-11T00:52:09.064Z,87.88
2023-02-11T00:54:37.443Z,88.01
2023-02-11T00:57:04.383Z,88.06
2023-02-11T00:59:33.265Z,87.84
2023-02-11T01:02:02.195Z,87.77
2023-02-11T01:04:29.016Z,88.26
2023-02-11T01:06:55.564Z,87.98
2023-02-11T01:09:23.467Z,88.14
2023-02-11T01:11:50.294Z,88.18
2023-02-11T01:14:17.333Z,88.01
2023-02-11T01:16:46.616Z,88.23
2023-02-11T01:19:13.815Z,88.19
2023-02-11T01:21:42.834Z,88.62
2023-02-11T01:24:09.433Z,88.47
2023-02-11T01:26:39.255Z,88.29
2023-02-11T01:29:07.424Z,88.45
2023-02-11T01:31:34.052Z,88.63
2023-02-11T01:34:03.261Z,88.74
2023-02-11T01:36:32.487Z,88.79
2023-02-11T01:38:59.306Z,89.01
2023-02-11T01:41:25.956Z,89.06
2023-02-11T01:43:52.813Z,88.94
2023-02-11T01:46:37.693Z,88.96
2023-02-11T01:49:10.056Z,88.96
2023-02-11T01:51:42.515Z,89.05
2023-02-11T01:54:30.100Z,89.13
2023-02-11T01:57:18.848Z,88.96
2023-02-11T02:00:21.903Z,89.37
2023-02-11T02:02:54.317Z,89.10
2023-02-11T02:05:43.267Z,89.12
2023-02-11T02:08:32.354Z,89.21
2023-02-11T02:11:01.279Z,89.25
2023-02-11T02:13:32.912Z,89.16
2023-02-11T02:16:03.909Z,89.12
2023-02-11T02:18:42.726Z,89.33
2023-02-11T02:21:39.875Z,89.17
2023-02-11T02:24:31.079Z,89.11
2023-02-11T02:27:13.205Z,89.24
2023-02-11T02:29:52.050Z,89.12
2023-02-11T02:32:36.943Z,89.08
2023-02-11T02:35:10.795Z,88.98
2023-02-11T02:38:06.829Z,89.19
2023-02-11T02:40:52.953Z,89.23
2023-02-11T02:43:21.842Z,89.51
2023-02-11T02:45:49.139Z,89.16
2023-02-11T02:48:42.746Z,89.31
2023-02-11T02:51:25.376Z,89.29
2023-02-11T02:54:08.973Z,89.35
2023-02-11T02:56:51.896Z,89.34
2023-02-11T02:59:33.774Z,89.56
2023-02-11T03:02:50.358Z,89.58
2023-02-11T03:05:22.844Z,89.61
2023-02-11T03:07:58.255Z,89.48
2023-02-11T03:10:47.111Z,89.90
2023-02-11T03:13:19.645Z,89.59
2023-02-11T03:15:52.511Z,89.88
2023-02-11T03:18:24.641Z,89.54
2023-02-11T03:20:54.680Z,89.82
2023-02-11T03:23:37.523Z,89.84
2023-02-11T03:26:48.325Z,90.02
2023-02-11T03:29:31.040Z,90.01
2023-02-11T03:32:17.709Z,90.00
2023-02-11T03:34:47.695Z,89.97
2023-02-11T03:37:27.753Z,90.17
2023-02-11T03:40:25.035Z,90.36
2023-02-11T03:42:57.594Z,90.20
2023-02-11T03:45:26.829Z,90.45
2023-02-11T03:48:04.306Z,90.53
2023-02-11T03:50:37.489Z,90.51
2023-02-11T03:53:06.050Z,90.70
2023-02-11T03:55:36.968Z,90.87
2023-02-11T03:58:06.832Z,90.83
2023-02-11T04:00:37.060Z,90.89
2023-02-11T04:03:04.869Z,91.13
2023-02-11T04:05:34.055Z,91.15
2023-02-11T04:08:01.123Z,91.23
2023-02-11T04:10:30.284Z,91.28
2023-02-11T04:12:57.443Z,91.19
2023-02-11T04:15:24.912Z,91.20
2023-02-11T04:17:53.811Z,91.19
2023-02-11T04:20:20.417Z,91.19
2023-02-11T04:22:52.029Z,91.54
2023-02-11T04:25:18.908Z,91.25
2023-02-11T04:27:45.401Z,91.31
2023-02-11T04:30:15.676Z,91.39
2023-02-11T04:32:42.569Z,91.45
2023-02-11T04:35:12.185Z,91.24
2023-02-11T04:37:38.982Z,91.46
2023-02-11T04:40:06.126Z,91.59
2023-02-11T04:42:34.941Z,91.52
2023-02-11T04:45:02.197Z,91.41
2023-02-11T04:47:31.330Z,91.36
2023-02-11T04:50:00.591Z,91.69
2023-02-11T04:52:27.493Z,91.69
2023-02-11T04:54:54.361Z,91.87
2023-02-11T04:57:23.510Z,91.83
2023-02-11T04:59:52.657Z,91.59
2023-02-11T05:02:19.525Z,92.10
2023-02-11T05:04:46.477Z,91.90
2023-02-11T05:07:13.043Z,91.78
2023-02-11T05:09:41.968Z,91.83
2023-02-11T05:12:11.105Z,91.78
2023-02-11T05:14:40.490Z,91.89
2023-02-11T05:17:07.214Z,92.00
2023-02-11T05:19:34.114Z,92.00
2023-02-11T05:22:03.482Z,91.96
2023-02-11T05:24:34.767Z,92.20
2023-02-11T05:27:02.037Z,92.22
2023-02-11T05:29:28.618Z,92.29
2023-02-11T05:31:55.167Z,92.31
2023-02-11T05:34:22.022Z,92.64
2023-02-11T05:36:48.846Z,92.51
2023-02-11T05:39:15.486Z,92.26
2023-02-11T05:41:46.292Z,92.15
2023-02-11T05:44:13.191Z,92.46
2023-02-11T05:46:42.816Z,92.35
2023-02-11T05:49:09.293Z,92.58
2023-02-11T05:51:35.839Z,92.63
2023-02-11T05:54:04.654Z,92.41
2023-02-11T05:56:31.473Z,92.64
2023-02-11T05:59:00.513Z,92.65
2023-02-11T06:01:27.339Z,92.74
2023-02-11T06:03:54.314Z,92.69
2023-02-11T06:06:21.351Z,92.73
2023-02-11T06:08:49.752Z,92.82
2023-02-11T06:11:16.501Z,92.86
2023-02-11T06:13:47.537Z,92.70
2023-02-11T06:16:14.730Z,92.68
2023-02-11T06:18:41.624Z,92.78
2023-02-11T06:21:10.336Z,92.81
2023-02-11T06:23:37.498Z,92.91
2023-02-11T06:26:06.332Z,92.55
2023-02-11T06:28:36.389Z,92.91
2023-02-11T06:31:07.248Z,92.69
2023-02-11T06:33:37.688Z,93.02
2023-02-11T06:36:13.739Z,92.90
2023-02-11T06:38:41.819Z,93.38
2023-02-11T06:41:16.919Z,93.15
2023-02-11T06:43:44.531Z,93.21
2023-02-11T06:46:11.575Z,93.39
2023-02-11T06:48:39.286Z,93.30
2023-02-11T06:51:13.699Z,93.35
2023-02-11T06:53:43.818Z,93.40
2023-02-11T06:56:13.952Z,93.18
2023-02-11T06:58:40.917Z,93.35
2023-02-11T07:01:09.475Z,93.39
2023-02-11T07:03:40.670Z,93.37
2023-02-11T07:06:09.084Z,93.54
2023-02-11T07:08:36.265Z,93.43
2023-02-11T07:11:19.540Z,93.30
2023-02-11T07:13:51.292Z,93.21
2023-02-11T07:16:19.802Z,93.27
2023-02-11T07:18:47.886Z,93.36
2023-02-11T07:21:19.883Z,93.41
2023-02-11T07:23:49.472Z,93.31
2023-02-11T07:26:20.048Z,93.36
2023-02-11T07:28:49.469Z,93.37
2023-02-11T07:31:26.024Z,93.43
2023-02-11T07:33:54.752Z,93.52
2023-02-11T07:36:22.265Z,93.64
2023-02-11T07:38:49.242Z,93.49
2023-02-11T07:41:18.966Z,93.51
2023-02-11T07:43:46.388Z,93.54
2023-02-11T07:46:22.212Z,93.54
2023-02-11T07:48:48.858Z,93.47
2023-02-11T07:51:16.806Z,93.49
2023-02-11T07:53:44.472Z,93.44
2023-02-11T07:56:14.909Z,93.38
2023-02-11T07:58:44.979Z,93.46
2023-02-11T08:01:25.472Z,93.38
2023-02-11T08:03:52.775Z,93.19
2023-02-11T08:06:21.217Z,93.27
2023-02-11T08:08:48.155Z,93.28
2023-02-11T08:11:24.379Z,93.22
2023-02-11T08:13:53.970Z,93.20
2023-02-11T08:16:29.858Z,92.98
2023-02-11T08:18:59.096Z,93.02
2023-02-11T08:21:26.555Z,92.82
2023-02-11T08:23:55.201Z,93.06
2023-02-11T08:26:28.794Z,92.95
2023-02-11T08:28:57.099Z,93.08
2023-02-11T08:31:27.048Z,92.83
2023-02-11T08:33:55.011Z,93.07
2023-02-11T08:36:26.806Z,92.92
2023-02-11T08:39:16.100Z,92.97
2023-02-11T08:41:45.160Z,92.74
2023-02-11T08:44:11.946Z,92.70
2023-02-11T08:46:38.737Z,92.88
2023-02-11T08:49:05.657Z,92.58
2023-02-11T08:51:33.319Z,92.84
2023-02-11T08:54:00.724Z,92.70
2023-02-11T08:56:28.226Z,92.87
2023-02-11T08:58:55.247Z,92.78
2023-02-11T09:01:29.021Z,92.80
2023-02-11T09:03:56.749Z,92.63
2023-02-11T09:06:27.145Z,92.66
2023-02-11T09:08:56.786Z,92.46
2023-02-11T09:11:34.261Z,92.39
2023-02-11T09:14:01.848Z,92.09
2023-02-11T09:16:33.030Z,92.13
2023-02-11T09:19:02.061Z,91.61
2023-02-11T09:21:29.467Z,91.69
2023-02-11T09:23:59.076Z,91.64
2023-02-11T09:26:32.796Z,91.42
2023-02-11T09:29:00.829Z,91.37
2023-02-11T09:31:29.761Z,91.39
2023-02-11T09:34:02.582Z,91.12
2023-02-11T09:36:34.823Z,91.01
2023-02-11T09:39:02.536Z,90.94
2023-02-11T09:41:35.631Z,90.89
2023-02-11T09:44:06.636Z,90.57
2023-02-11T09:46:36.986Z,90.44
2023-02-11T09:49:05.008Z,90.43
2023-02-11T09:51:40.654Z,90.19
2023-02-11T09:54:31.970Z,89.93
2023-02-11T09:56:58.806Z,89.82
2023-02-11T09:59:27.899Z,89.62
2023-02-11T10:02:00.269Z,89.40
2023-02-11T10:04:38.268Z,89.26
2023-02-11T10:07:17.305Z,88.88
2023-02-11T10:10:25.681Z,88.34
2023-02-11T10:12:55.151Z,88.03
2023-02-11T10:15:33.481Z,87.81
2023-02-11T10:18:00.519Z,87.43
2023-02-11T10:21:08.829Z,86.90
2023-02-11T10:23:40.270Z,86.87
2023-02-11T10:26:17.747Z,86.04
2023-02-11T10:28:47.970Z,85.70
2023-02-11T10:31:18.907Z,85.04
2023-02-11T10:34:12.391Z,84.77
2023-02-11T10:36:43.946Z,84.77
2023-02-11T10:39:19.267Z,84.17
2023-02-11T10:41:50.729Z,84.17
2023-02-11T10:44:24.864Z,84.17
2023-02-11T10:46:52.524Z,84.19
2023-02-11T10:49:36.661Z,83.42
2023-02-11T10:52:14.197Z,83.10
2023-02-11T10:54:41.170Z,82.70
2023-02-11T10:57:22.344Z,82.35
2023-02-11T10:59:49.492Z,82.92
2023-02-11T11:02:35.952Z,82.80
2023-02-11T11:05:31.617Z,83.15
2023-02-11T11:08:10.077Z,83.10
2023-02-11T11:10:44.101Z,82.94
2023-02-11T11:13:32.241Z,82.84
2023-02-11T11:16:13.922Z,82.58
2023-02-11T11:18:43.871Z,81.69
2023-02-11T11:21:35.761Z,80.79
2023-02-11T11:24:03.912Z,80.10
2023-02-11T11:26:48.665Z,80.31
2023-02-11T11:29:23.949Z,80.35
2023-02-11T11:31:57.907Z,80.77
2023-02-11T11:34:29.246Z,81.12
2023-02-11T11:36:58.404Z,81.24
2023-02-11T11:39:31.429Z,80.79
2023-02-11T11:41:59.593Z,80.23
2023-02-11T11:44:33.478Z,79.99
2023-02-11T11:47:12.409Z,79.43
2023-02-11T11:50:09.095Z,79.12
2023-02-11T11:52:53.893Z,79.44
2023-02-11T11:55:42.976Z,79.46
2023-02-11T11:58:26.221Z,79.71
2023-02-11T12:01:10.788Z,79.76
2023-02-11T12:04:14.396Z,79.98
2023-02-11T12:07:00.723Z,80.26
2023-02-11T12:09:38.452Z,80.33
2023-02-11T12:12:14.271Z,80.25
2023-02-11T12:14:49.810Z,79.85
2023-02-11T12:17:57.411Z,79.59
2023-02-11T12:20:36.043Z,79.23
2023-02-11T12:23:11.653Z,79.05
2023-02-11T12:25:45.333Z,79.20
2023-02-11T12:28:34.003Z,78.90
2023-02-11T12:31:35.445Z,78.85
2023-02-11T12:34:12.440Z,78.56
2023-02-11T12:36:47.440Z,78.11
2023-02-11T12:39:37.445Z,77.96
2023-02-11T12:42:47.151Z,77.47
2023-02-11T12:45:26.400Z,77.33
2023-02-11T12:48:37.078Z,76.89
2023-02-11T12:51:28.258Z,76.57
2023-02-11T12:54:09.982Z,76.41
2023-02-11T12:57:02.465Z,75.39
2023-02-11T12:59:40.553Z,75.55
2023-02-11T13:02:22.966Z,75.92
2023-02-11T13:04:54.507Z,75.81
2023-02-11T13:07:32.723Z,75.24
2023-02-11T13:10:15.642Z,75.04
2023-02-11T13:13:07.007Z,75.31
2023-02-11T13:15:33.628Z,75.22
2023-02-11T13:18:27.402Z,74.80
2023-02-11T13:21:15.578Z,75.04
2023-02-11T13:24:17.833Z,75.27
2023-02-11T13:26:47.448Z,75.11
2023-02-11T13:29:25.889Z,74.97
2023-02-11T13:32:18.188Z,75.25
2023-02-11T13:34:44.649Z,75.42
2023-02-11T13:37:28.120Z,75.46
2023-02-11T13:40:01.037Z,74.73
2023-02-11T13:42:30.521Z,75.28
2023-02-11T13:44:58.265Z,75.16
2023-02-11T13:47:38.031Z,75.72
2023-02-11T13:50:07.737Z,74.33
2023-02-11T13:52:40.004Z,74.22
2023-02-11T13:55:21.093Z,74.21
2023-02-11T13:58:11.135Z,74.24
2023-02-11T14:00:37.556Z,74.38
2023-02-11T14:03:32.321Z,74.62
2023-02-11T14:06:34.397Z,74.98
2023-02-11T14:09:09.972Z,74.93
2023-02-11T14:11:51.822Z,75.46
2023-02-11T14:14:25.691Z,75.40
2023-02-11T14:16:58.154Z,75.48
2023-02-11T14:19:45.677Z,75.30
2023-02-11T14:22:21.743Z,75.83
2023-02-11T14:24:50.997Z,75.96
2023-02-11T14:27:32.624Z,76.21
2023-02-11T14:30:20.909Z,76.27
2023-02-11T14:33:08.595Z,75.75
2023-02-11T14:35:40.482Z,75.70
2023-02-11T14:38:18.927Z,75.63
2023-02-11T14:41:18.671Z,75.54
2023-02-11T14:43:49.694Z,75.50
2023-02-11T14:46:19.135Z,75.55
2023-02-11T14:48:49.026Z,75.54
2023-02-11T14:51:28.136Z,75.61
2023-02-11T14:54:00.962Z,75.80
2023-02-11T14:56:34.732Z,75.85
2023-02-11T14:59:02.813Z,75.92
2023-02-11T15:01:34.334Z,75.98
2023-02-11T15:04:03.640Z,76.32
2023-02-11T15:06:37.723Z,76.50
2023-02-11T15:09:16.423Z,76.32
2023-02-11T15:11:46.091Z,76.60
2023-02-11T15:14:35.968Z,76.48
2023-02-11T15:17:05.988Z,76.85
2023-02-11T15:19:41.024Z,76.93
2023-02-11T15:22:18.815Z,77.33
2023-02-11T15:24:45.967Z,77.55
2023-02-11T15:27:18.864Z,77.88
2023-02-11T15:29:51.166Z,77.93
2023-02-11T15:32:25.825Z,78.28
2023-02-11T15:34:54.382Z,78.36
2023-02-11T15:37:29.097Z,78.40
2023-02-11T15:40:11.565Z,78.61
2023-02-11T15:42:52.066Z,78.59
2023-02-11T15:45:29.024Z,78.89
2023-02-11T15:48:18.003Z,79.03
2023-02-11T15:50:55.750Z,79.51
2023-02-11T15:53:28.755Z,79.46
2023-02-11T15:56:08.288Z,79.92
2023-02-11T15:58:43.766Z,80.03
2023-02-11T16:01:11.387Z,80.35
2023-02-11T16:03:38.644Z,80.33
2023-02-11T16:06:29.493Z,80.42
2023-02-11T16:09:01.695Z,80.56
2023-02-11T16:11:34.502Z,80.84
2023-02-11T16:14:04.567Z,80.91
2023-02-11T16:16:34.755Z,81.59
2023-02-11T16:19:06.220Z,81.65
2023-02-11T16:21:45.273Z,81.97
2023-02-11T16:24:27.986Z,82.13
2023-02-11T16:26:57.997Z,82.16
2023-02-11T16:29:27.456Z,82.34
2023-02-11T16:32:05.237Z,82.57
2023-02-11T16:34:31.872Z,82.48
2023-02-11T16:37:04.354Z,82.75
2023-02-11T16:39:31.100Z,82.85
2023-02-11T16:41:58.492Z,83.15
2023-02-11T16:44:26.496Z,83.16
2023-02-11T16:46:54.899Z,83.11
2023-02-11T16:49:32.617Z,83.14
2023-02-11T16:52:03.865Z,83.19
2023-02-11T16:54:32.018Z,83.45
2023-02-11T16:57:09.120Z,83.29
2023-02-11T16:59:35.625Z,83.26
2023-02-11T17:02:04.988Z,83.39
2023-02-11T17:04:33.718Z,83.43
2023-02-11T17:07:00.365Z,83.54
2023-02-11T17:09:31.437Z,83.56
2023-02-11T17:11:58.076Z,83.44
2023-02-11T17:14:27.421Z,83.39
2023-02-11T17:16:57.906Z,82.94
2023-02-11T17:19:26.814Z,83.39
2023-02-11T17:21:53.357Z,83.43
2023-02-11T17:24:21.942Z,83.51
2023-02-11T17:26:49.736Z,83.59
2023-02-11T17:29:23.091Z,83.58
2023-02-11T17:31:52.730Z,83.66
2023-02-11T17:34:23.607Z,83.69
2023-02-11T17:36:52.155Z,83.95
2023-02-11T17:39:21.179Z,84.23
2023-02-11T17:41:49.322Z,84.08
2023-02-11T17:44:16.521Z,84.54
2023-02-11T17:46:43.754Z,84.64
2023-02-11T17:49:11.971Z,84.57
2023-02-11T17:51:39.285Z,84.44
2023-02-11T17:54:17.635Z,84.69
2023-02-11T17:56:45.134Z,84.71
2023-02-11T17:59:14.114Z,84.95
2023-02-11T18:01:42.236Z,84.88
2023-02-11T18:04:13.200Z,84.86
2023-02-11T18:06:39.832Z,85.33
2023-02-11T18:09:10.475Z,85.08
2023-02-11T18:11:39.994Z,85.47
2023-02-11T18:14:08.553Z,85.23
2023-02-11T18:16:39.462Z,85.49
2023-02-11T18:19:08.291Z,85.22
2023-02-11T18:21:35.058Z,85.50
2023-02-11T18:24:06.960Z,85.57
2023-02-11T18:26:39.132Z,85.61
2023-02-11T18:29:07.013Z,85.71
2023-02-11T18:31:35.720Z,85.83
2023-02-11T18:34:07.777Z,85.62
2023-02-11T18:36:35.412Z,85.86
2023-02-11T18:39:06.268Z,85.74
2023-02-11T18:41:33.508Z,85.99
2023-02-11T18:44:03.035Z,86.17
2023-02-11T18:46:32.816Z,85.98
2023-02-11T18:48:59.782Z,86.00
2023-02-11T18:51:27.034Z,86.12
2023-02-11T18:53:53.610Z,86.11
2023-02-11T18:56:23.412Z,86.18
2023-02-11T18:58:52.566Z,86.24
2023-02-11T19:01:24.721Z,86.18
2023-02-11T19:03:51.979Z,86.43
2023-02-11T19:06:30.399Z,86.38
2023-02-11T19:09:02.736Z,86.39
2023-02-11T19:11:50.582Z,86.27
2023-02-11T19:14:23.410Z,86.18
2023-02-11T19:16:53.104Z,86.33
2023-02-11T19:19:25.826Z,86.31
2023-02-11T19:21:52.587Z,86.21
2023-02-11T19:24:23.591Z,86.28
2023-02-11T19:26:52.115Z,86.11
2023-02-11T19:29:19.242Z,86.27
2023-02-11T19:31:46.087Z,86.26
2023-02-11T19:34:15.007Z,86.05
2023-02-11T19:36:42.053Z,86.05
2023-02-11T19:39:09.160Z,86.06
2023-02-11T19:41:38.804Z,86.07
2023-02-11T19:44:06.921Z,85.96
2023-02-11T19:46:40.886Z,85.82
2023-02-11T19:49:10.645Z,85.92
2023-02-11T19:51:39.700Z,85.95
2023-02-11T19:54:07.739Z,85.96
2023-02-11T19:56:34.724Z,85.92
2023-02-11T19:59:04.415Z,86.04
2023-02-11T20:01:31.022Z,85.80
2023-02-11T20:04:00.049Z,86.04
2023-02-11T20:06:29.652Z,85.88
2023-02-11T20:09:01.580Z,85.88
2023-02-11T20:11:30.571Z,85.94
2023-02-11T20:13:58.188Z,86.10
2023-02-11T20:16:46.950Z,86.07
2023-02-11T20:19:21.509Z,86.04
2023-02-11T20:21:51.471Z,85.93
2023-02-11T20:24:19.444Z,85.94
2023-02-11T20:26:48.787Z,86.06
2023-02-11T20:29:20.515Z,86.01
2023-02-11T20:31:51.715Z,85.95
2023-02-11T20:34:18.996Z,86.09
2023-02-11T20:36:52.341Z,86.08
2023-02-11T20:39:22.314Z,86.30
2023-02-11T20:41:49.939Z,86.13
2023-02-11T20:44:16.794Z,86.38
2023-02-11T20:46:47.029Z,86.29
2023-02-11T20:49:16.524Z,86.43
2023-02-11T20:51:43.715Z,86.48
2023-02-11T20:54:15.003Z,86.37
2023-02-11T20:56:42.332Z,86.45
2023-02-11T20:59:15.328Z,86.69
2023-02-11T21:01:44.549Z,86.57
2023-02-11T21:04:14.677Z,86.64
2023-02-11T21:06:45.406Z,86.55
2023-02-11T21:09:19.661Z,86.66
2023-02-11T21:11:47.383Z,86.44
2023-02-11T21:14:16.497Z,86.78
2023-02-11T21:16:43.276Z,86.35
2023-02-11T21:19:10.078Z,86.51
2023-02-11T21:21:38.185Z,86.75
2023-02-11T21:24:08.904Z,86.58
2023-02-11T21:26:36.210Z,86.57
2023-02-11T21:29:04.302Z,86.63
2023-02-11T21:31:32.875Z,86.65
2023-02-11T21:33:59.961Z,86.67
2023-02-11T21:36:28.281Z,86.71
2023-02-11T21:38:55.025Z,86.68
2023-02-11T21:41:22.652Z,86.59
2023-02-11T21:43:50.967Z,86.84
2023-02-11T21:46:18.816Z,86.77
2023-02-11T21:48:48.182Z,86.71
2023-02-11T21:51:20.500Z,86.78
2023-02-11T21:53:47.839Z,86.91
2023-02-11T21:56:17.815Z,86.74
2023-02-11T21:58:45.471Z,86.95
2023-02-11T22:01:16.323Z,86.75
2023-02-11T22:03:43.539Z,86.93
2023-02-11T22:06:12.848Z,86.82
2023-02-11T22:08:42.467Z,87.02
2023-02-11T22:11:11.518Z,86.87
2023-02-11T22:13:38.715Z,87.03
2023-02-11T22:16:08.573Z,86.89
2023-02-11T22:18:37.115Z,86.99
2023-02-11T22:21:09.464Z,86.96
2023-02-11T22:23:37.478Z,86.95
2023-02-11T22:26:09.586Z,87.09
2023-02-11T22:28:39.167Z,87.22
2023-02-11T22:31:06.590Z,87.26
2023-02-11T22:33:37.526Z,87.02
2023-02-11T22:36:07.932Z,87.21
2023-02-11T22:38:37.638Z,87.12
2023-02-11T22:41:12.792Z,87.24
2023-02-11T22:43:39.364Z,87.21
2023-02-11T22:46:07.745Z,87.32
2023-02-11T22:48:36.185Z,87.37
2023-02-11T22:51:14.625Z,87.32
2023-02-11T22:53:46.539Z,87.44
2023-02-11T22:56:15.847Z,87.36
2023-02-11T22:58:43.594Z,87.29
2023-02-11T23:01:13.118Z,87.46
2023-02-11T23:03:40.174Z,87.67
2023-02-11T23:06:07.376Z,87.61
2023-02-11T23:08:40.502Z,87.48
2023-02-11T23:11:09.802Z,87.66
2023-02-11T23:13:38.806Z,87.64
2023-02-11T23:16:07.650Z,87.78
2023-02-11T23:18:36.192Z,87.85
2023-02-11T23:21:16.599Z,87.76
2023-02-11T23:23:44.258Z,87.89
2023-02-11T23:26:17.428Z,87.86
2023-02-11T23:28:47.308Z,87.97
2023-02-11T23:31:27.020Z,87.83
2023-02-11T23:33:56.543Z,87.92
2023-02-11T23:36:23.972Z,88.06
2023-02-11T23:38:54.796Z,88.14
2023-02-11T23:41:22.445Z,87.91
2023-02-11T23:43:54.152Z,88.13
2023-02-11T23:46:24.854Z,88.12
2023-02-11T23:48:52.241Z,88.13
2023-02-11T23:51:20.786Z,87.95
2023-02-11T23:53:50.197Z,88.03
2023-02-11T23:56:20.821Z,88.20
2023-02-11T23:58:49.411Z,87.98
